Main page
Satellite images 15-day forecastsClimateMarine weather Cyclones Lightning AirportsFAQ Newsletter About
Weather : Europe Africa North America South America Asia Australia-Oceania Others
Languages Contact

Istanbul Atatürk, Turkey

latitude: 40-58N, longitude: 028-49E, elevation: 48 m


METAR: LTBA 301720Z 05009KT 030V100 CAVOK 18/11 Q1024 NOSIG RMK RWY17L 07007KT 050V120 RWY05 05008KT RWY23 06006KT
TAF: LTBA 301640Z 3018/0124 04009KT CAVOK BECMG 0104/0107 SCT035 BECMG 0109/0112 CAVOK

Time: 20:50 (17:50 UTC)

Current weather observation

The report was made 30 minutes ago, at 17:20 UTC  
Wind 09 kt from the Northeast, varying between North/Northeast and East
Temperature 18°C
Humidity 64%
Pressure 1024 hPa
Visibility 10 km or more
no clouds below 1500 m and no cumulonimbus

Change units

Forecast

The report was made 01 hour and 10 minutes ago, at 16:40 UTC  
Forecast valid from 30 at 18 UTC to 01 at 24 UTC
Wind 09 kt from the Northeast
Visibility 10 km or more
no clouds below 1500 m and no cumulonimbus
Becoming
from 01 at 04 UTC to 01 at 07 UTC
Scattered clouds at a height of 3500 ft
Becoming
from 01 at 09 UTC to 01 at 12 UTC
Visibility 10 km or more
no clouds below 1500 m and no cumulonimbus
The information on this site is subject to a disclaimer
Weather : Europe Africa North America South America Asia Australia-Oceania Others
Satellite images 15-day forecastsClimateMarine weather Cyclones Lightning AirportsFAQ Languages Contact Newsletter About